sensor_id;sensor_type;location;lat;lon;timestamp;P1;durP1;ratioP1;P2;durP2;ratioP2
15104;SDS011;7653;48.994;9.212;2023-02-23T00:04:56;32.80;;;20.97;;
15104;SDS011;7653;48.994;9.212;2023-02-23T00:07:21;28.70;;;20.50;;
15104;SDS011;7653;48.994;9.212;2023-02-23T00:09:59;30.80;;;20.33;;
15104;SDS011;7653;48.994;9.212;2023-02-23T00:12:28;29.80;;;19.67;;
15104;SDS011;7653;48.994;9.212;2023-02-23T00:14:54;25.93;;;18.23;;
15104;SDS011;7653;48.994;9.212;2023-02-23T00:17:20;25.17;;;17.90;;
15104;SDS011;7653;48.994;9.212;2023-02-23T00:19:48;26.40;;;18.17;;
15104;SDS011;7653;48.994;9.212;2023-02-23T00:22:16;28.53;;;18.53;;
15104;SDS011;7653;48.994;9.212;2023-02-23T00:24:42;25.80;;;17.93;;
15104;SDS011;7653;48.994;9.212;2023-02-23T00:27:10;27.90;;;18.20;;
15104;SDS011;7653;48.994;9.212;2023-02-23T00:29:48;26.00;;;17.83;;
15104;SDS011;7653;48.994;9.212;2023-02-23T00:32:14;28.30;;;18.67;;
15104;SDS011;7653;48.994;9.212;2023-02-23T00:34:46;28.40;;;19.47;;
15104;SDS011;7653;48.994;9.212;2023-02-23T00:37:36;27.50;;;18.57;;
15104;SDS011;7653;48.994;9.212;2023-02-23T00:40:05;27.63;;;19.03;;
15104;SDS011;7653;48.994;9.212;2023-02-23T00:42:37;30.40;;;19.10;;
15104;SDS011;7653;48.994;9.212;2023-02-23T00:45:05;28.53;;;19.27;;
15104;SDS011;7653;48.994;9.212;2023-02-23T00:47:35;32.30;;;20.67;;
15104;SDS011;7653;48.994;9.212;2023-02-23T00:50:10;27.93;;;19.77;;
15104;SDS011;7653;48.994;9.212;2023-02-23T00:52:50;30.03;;;19.37;;
15104;SDS011;7653;48.994;9.212;2023-02-23T00:55:19;30.27;;;19.60;;
15104;SDS011;7653;48.994;9.212;2023-02-23T00:57:44;27.90;;;18.70;;
15104;SDS011;7653;48.994;9.212;2023-02-23T01:00:11;28.87;;;20.07;;
15104;SDS011;7653;48.994;9.212;2023-02-23T01:06:06;31.50;;;20.27;;
15104;SDS011;7653;48.994;9.212;2023-02-23T01:08:38;28.53;;;20.23;;
15104;SDS011;7653;48.994;9.212;2023-02-23T01:11:13;30.03;;;19.27;;
15104;SDS011;7653;48.994;9.212;2023-02-23T01:13:52;31.87;;;20.47;;
15104;SDS011;7653;48.994;9.212;2023-02-23T01:16:20;35.23;;;21.63;;
15104;SDS011;7653;48.994;9.212;2023-02-23T01:18:58;29.03;;;20.67;;
15104;SDS011;7653;48.994;9.212;2023-02-23T01:24:10;28.57;;;19.70;;
15104;SDS011;7653;48.994;9.212;2023-02-23T01:26:43;34.43;;;22.73;;
15104;SDS011;7653;48.994;9.212;2023-02-23T01:29:16;30.50;;;21.53;;
15104;SDS011;7653;48.994;9.212;2023-02-23T01:31:52;33.93;;;21.17;;
15104;SDS011;7653;48.994;9.212;2023-02-23T01:34:45;29.60;;;20.30;;
15104;SDS011;7653;48.994;9.212;2023-02-23T01:37:16;35.30;;;21.10;;
15104;SDS011;7653;48.994;9.212;2023-02-23T01:39:42;33.57;;;21.67;;
15104;SDS011;7653;48.994;9.212;2023-02-23T01:42:17;32.03;;;22.03;;
15104;SDS011;7653;48.994;9.212;2023-02-23T01:47:47;32.10;;;22.87;;
15104;SDS011;7653;48.994;9.212;2023-02-23T01:50:30;31.53;;;22.70;;
15104;SDS011;7653;48.994;9.212;2023-02-23T01:53:18;33.37;;;22.10;;
15104;SDS011;7653;48.994;9.212;2023-02-23T01:55:58;28.83;;;21.87;;
15104;SDS011;7653;48.994;9.212;2023-02-23T01:58:44;32.47;;;22.70;;
15104;SDS011;7653;48.994;9.212;2023-02-23T02:01:20;33.13;;;23.10;;
15104;SDS011;7653;48.994;9.212;2023-02-23T02:03:57;34.27;;;22.53;;
15104;SDS011;7653;48.994;9.212;2023-02-23T02:07:23;35.60;;;23.17;;
15104;SDS011;7653;48.994;9.212;2023-02-23T02:10:06;33.60;;;21.80;;
15104;SDS011;7653;48.994;9.212;2023-02-23T02:13:10;32.00;;;22.83;;
15104;SDS011;7653;48.994;9.212;2023-02-23T02:24:03;34.57;;;23.17;;
15104;SDS011;7653;48.994;9.212;2023-02-23T02:47:28;36.40;;;23.17;;
15104;SDS011;7653;48.994;9.212;2023-02-23T02:56:23;37.53;;;24.73;;
15104;SDS011;7653;48.994;9.212;2023-02-23T02:58:51;33.97;;;24.73;;
15104;SDS011;7653;48.994;9.212;2023-02-23T03:01:18;36.67;;;24.57;;
15104;SDS011;7653;48.994;9.212;2023-02-23T03:04:16;34.87;;;24.07;;
15104;SDS011;7653;48.994;9.212;2023-02-23T03:07:15;36.77;;;24.90;;
15104;SDS011;7653;48.994;9.212;2023-02-23T03:26:27;35.50;;;24.73;;
15104;SDS011;7653;48.994;9.212;2023-02-23T03:33:31;38.90;;;25.93;;
15104;SDS011;7653;48.994;9.212;2023-02-23T03:35:58;35.10;;;24.17;;
15104;SDS011;7653;48.994;9.212;2023-02-23T03:42:16;36.27;;;25.03;;
15104;SDS011;7653;48.994;9.212;2023-02-23T03:45:16;36.27;;;25.27;;
15104;SDS011;7653;48.994;9.212;2023-02-23T03:48:04;36.20;;;24.53;;
15104;SDS011;7653;48.994;9.212;2023-02-23T03:51:00;39.17;;;25.23;;
15104;SDS011;7653;48.994;9.212;2023-02-23T03:53:58;37.10;;;26.07;;
15104;SDS011;7653;48.994;9.212;2023-02-23T03:57:11;41.13;;;26.00;;
15104;SDS011;7653;48.994;9.212;2023-02-23T04:00:03;40.33;;;26.47;;
15104;SDS011;7653;48.994;9.212;2023-02-23T04:06:06;43.30;;;27.20;;
15104;SDS011;7653;48.994;9.212;2023-02-23T04:08:55;37.93;;;25.90;;
15104;SDS011;7653;48.994;9.212;2023-02-23T04:20:16;40.53;;;26.50;;
15104;SDS011;7653;48.994;9.212;2023-02-23T04:22:42;38.67;;;26.37;;
15104;SDS011;7653;48.994;9.212;2023-02-23T04:25:08;39.00;;;26.30;;
15104;SDS011;7653;48.994;9.212;2023-02-23T04:27:43;41.93;;;26.37;;
15104;SDS011;7653;48.994;9.212;2023-02-23T04:30:09;34.60;;;25.10;;
15104;SDS011;7653;48.994;9.212;2023-02-23T04:32:35;34.67;;;24.43;;
15104;SDS011;7653;48.994;9.212;2023-02-23T04:35:11;36.87;;;25.87;;
15104;SDS011;7653;48.994;9.212;2023-02-23T04:38:03;36.67;;;26.33;;
15104;SDS011;7653;48.994;9.212;2023-02-23T04:40:29;43.03;;;27.23;;
15104;SDS011;7653;48.994;9.212;2023-02-23T04:43:01;36.80;;;26.63;;
15104;SDS011;7653;48.994;9.212;2023-02-23T04:45:27;35.67;;;25.30;;
15104;SDS011;7653;48.994;9.212;2023-02-23T04:47:53;43.43;;;26.43;;
15104;SDS011;7653;48.994;9.212;2023-02-23T04:50:22;36.77;;;26.70;;
15104;SDS011;7653;48.994;9.212;2023-02-23T04:52:47;43.90;;;27.50;;
15104;SDS011;7653;48.994;9.212;2023-02-23T04:55:20;38.40;;;27.60;;
15104;SDS011;7653;48.994;9.212;2023-02-23T04:57:51;37.33;;;24.97;;
15104;SDS011;7653;48.994;9.212;2023-02-23T05:00:46;39.20;;;26.93;;
15104;SDS011;7653;48.994;9.212;2023-02-23T05:03:24;41.57;;;27.30;;
15104;SDS011;7653;48.994;9.212;2023-02-23T05:08:59;46.90;;;29.20;;
15104;SDS011;7653;48.994;9.212;2023-02-23T05:11:24;46.40;;;29.40;;
15104;SDS011;7653;48.994;9.212;2023-02-23T05:13:56;42.37;;;28.47;;
15104;SDS011;7653;48.994;9.212;2023-02-23T05:16:21;46.90;;;28.83;;
15104;SDS011;7653;48.994;9.212;2023-02-23T05:18:47;42.57;;;28.87;;
15104;SDS011;7653;48.994;9.212;2023-02-23T05:21:32;44.83;;;30.27;;
15104;SDS011;7653;48.994;9.212;2023-02-23T05:23:57;42.57;;;29.67;;
15104;SDS011;7653;48.994;9.212;2023-02-23T05:26:24;47.00;;;30.33;;
15104;SDS011;7653;48.994;9.212;2023-02-23T05:28:49;44.77;;;29.80;;
15104;SDS011;7653;48.994;9.212;2023-02-23T05:31:15;42.37;;;28.57;;
15104;SDS011;7653;48.994;9.212;2023-02-23T05:33:41;45.90;;;28.67;;
15104;SDS011;7653;48.994;9.212;2023-02-23T05:36:08;53.47;;;32.17;;
15104;SDS011;7653;48.994;9.212;2023-02-23T05:38:38;45.90;;;30.23;;
15104;SDS011;7653;48.994;9.212;2023-02-23T05:41:09;44.70;;;30.50;;
15104;SDS011;7653;48.994;9.212;2023-02-23T05:46:26;43.40;;;28.67;;
15104;SDS011;7653;48.994;9.212;2023-02-23T05:49:10;45.20;;;29.30;;
15104;SDS011;7653;48.994;9.212;2023-02-23T05:51:48;44.17;;;28.83;;
15104;SDS011;7653;48.994;9.212;2023-02-23T05:54:19;41.47;;;29.03;;
15104;SDS011;7653;48.994;9.212;2023-02-23T05:56:45;51.30;;;29.17;;
15104;SDS011;7653;48.994;9.212;2023-02-23T05:59:17;46.43;;;28.87;;
15104;SDS011;7653;48.994;9.212;2023-02-23T06:04:53;47.23;;;28.40;;
15104;SDS011;7653;48.994;9.212;2023-02-23T06:07:19;47.07;;;28.37;;
15104;SDS011;7653;48.994;9.212;2023-02-23T06:09:45;44.07;;;28.30;;
15104;SDS011;7653;48.994;9.212;2023-02-23T06:15:10;44.33;;;28.77;;
15104;SDS011;7653;48.994;9.212;2023-02-23T06:17:45;45.33;;;28.10;;
15104;SDS011;7653;48.994;9.212;2023-02-23T06:20:17;52.97;;;30.83;;
15104;SDS011;7653;48.994;9.212;2023-02-23T06:22:42;45.87;;;29.67;;
15104;SDS011;7653;48.994;9.212;2023-02-23T06:25:11;45.30;;;28.90;;
15104;SDS011;7653;48.994;9.212;2023-02-23T06:27:38;47.17;;;28.03;;
15104;SDS011;7653;48.994;9.212;2023-02-23T06:30:07;48.90;;;30.50;;
15104;SDS011;7653;48.994;9.212;2023-02-23T06:32:36;44.73;;;29.47;;
15104;SDS011;7653;48.994;9.212;2023-02-23T06:35:02;46.63;;;28.23;;
15104;SDS011;7653;48.994;9.212;2023-02-23T06:37:37;44.43;;;27.77;;
15104;SDS011;7653;48.994;9.212;2023-02-23T06:42:57;50.40;;;29.27;;
15104;SDS011;7653;48.994;9.212;2023-02-23T06:45:23;44.63;;;29.43;;
15104;SDS011;7653;48.994;9.212;2023-02-23T06:47:49;45.23;;;28.70;;
15104;SDS011;7653;48.994;9.212;2023-02-23T06:50:21;44.67;;;28.27;;
15104;SDS011;7653;48.994;9.212;2023-02-23T06:52:46;42.67;;;27.50;;
15104;SDS011;7653;48.994;9.212;2023-02-23T06:55:18;44.63;;;29.00;;
15104;SDS011;7653;48.994;9.212;2023-02-23T06:57:48;43.20;;;28.33;;
15104;SDS011;7653;48.994;9.212;2023-02-23T07:00:15;42.60;;;29.00;;
15104;SDS011;7653;48.994;9.212;2023-02-23T07:02:47;42.77;;;28.17;;
15104;SDS011;7653;48.994;9.212;2023-02-23T07:05:19;39.93;;;25.93;;
15104;SDS011;7653;48.994;9.212;2023-02-23T07:07:45;41.23;;;27.60;;
15104;SDS011;7653;48.994;9.212;2023-02-23T07:10:23;42.50;;;27.87;;
15104;SDS011;7653;48.994;9.212;2023-02-23T07:25:36;41.43;;;27.10;;
15104;SDS011;7653;48.994;9.212;2023-02-23T07:30:58;39.73;;;27.23;;
15104;SDS011;7653;48.994;9.212;2023-02-23T07:33:33;40.40;;;27.97;;
15104;SDS011;7653;48.994;9.212;2023-02-23T07:36:11;41.90;;;28.07;;
15104;SDS011;7653;48.994;9.212;2023-02-23T07:38:37;43.57;;;29.43;;
15104;SDS011;7653;48.994;9.212;2023-02-23T07:47:20;37.30;;;25.93;;
15104;SDS011;7653;48.994;9.212;2023-02-23T07:49:53;36.03;;;26.33;;
15104;SDS011;7653;48.994;9.212;2023-02-23T07:52:28;36.20;;;25.30;;
15104;SDS011;7653;48.994;9.212;2023-02-23T07:55:06;34.87;;;24.77;;
15104;SDS011;7653;48.994;9.212;2023-02-23T07:57:33;41.30;;;27.03;;
15104;SDS011;7653;48.994;9.212;2023-02-23T08:00:14;42.50;;;25.97;;
15104;SDS011;7653;48.994;9.212;2023-02-23T08:05:35;45.23;;;26.30;;
15104;SDS011;7653;48.994;9.212;2023-02-23T08:08:12;40.37;;;26.30;;
15104;SDS011;7653;48.994;9.212;2023-02-23T08:10:44;42.77;;;26.47;;
15104;SDS011;7653;48.994;9.212;2023-02-23T08:13:11;40.07;;;25.17;;
15104;SDS011;7653;48.994;9.212;2023-02-23T08:18:17;39.87;;;23.77;;
15104;SDS011;7653;48.994;9.212;2023-02-23T08:20:46;39.67;;;22.83;;
15104;SDS011;7653;48.994;9.212;2023-02-23T08:26:38;37.60;;;22.53;;
15104;SDS011;7653;48.994;9.212;2023-02-23T08:29:04;31.90;;;22.47;;
15104;SDS011;7653;48.994;9.212;2023-02-23T08:31:29;38.33;;;23.37;;
15104;SDS011;7653;48.994;9.212;2023-02-23T08:33:55;31.60;;;21.67;;
15104;SDS011;7653;48.994;9.212;2023-02-23T08:36:27;37.13;;;23.00;;
15104;SDS011;7653;48.994;9.212;2023-02-23T08:38:52;41.23;;;24.53;;
15104;SDS011;7653;48.994;9.212;2023-02-23T08:41:18;40.83;;;25.07;;
15104;SDS011;7653;48.994;9.212;2023-02-23T08:43:53;35.03;;;21.73;;
15104;SDS011;7653;48.994;9.212;2023-02-23T08:46:19;41.77;;;25.17;;
15104;SDS011;7653;48.994;9.212;2023-02-23T08:48:50;30.50;;;22.73;;
15104;SDS011;7653;48.994;9.212;2023-02-23T08:51:22;34.83;;;21.83;;
15104;SDS011;7653;48.994;9.212;2023-02-23T08:53:51;37.33;;;21.63;;
15104;SDS011;7653;48.994;9.212;2023-02-23T08:56:17;33.03;;;20.93;;
15104;SDS011;7653;48.994;9.212;2023-02-23T08:58:43;27.67;;;20.13;;
15104;SDS011;7653;48.994;9.212;2023-02-23T09:01:15;30.47;;;19.87;;
15104;SDS011;7653;48.994;9.212;2023-02-23T09:03:43;31.60;;;19.77;;
15104;SDS011;7653;48.994;9.212;2023-02-23T09:06:12;29.87;;;19.40;;
15104;SDS011;7653;48.994;9.212;2023-02-23T09:08:49;27.00;;;17.90;;
15104;SDS011;7653;48.994;9.212;2023-02-23T09:11:15;32.40;;;18.47;;
15104;SDS011;7653;48.994;9.212;2023-02-23T09:13:41;27.83;;;19.67;;
15104;SDS011;7653;48.994;9.212;2023-02-23T09:16:07;28.77;;;18.63;;
15104;SDS011;7653;48.994;9.212;2023-02-23T09:18:39;26.33;;;19.00;;
15104;SDS011;7653;48.994;9.212;2023-02-23T09:21:07;24.20;;;18.37;;
15104;SDS011;7653;48.994;9.212;2023-02-23T09:23:58;31.77;;;19.20;;
15104;SDS011;7653;48.994;9.212;2023-02-23T09:26:33;33.90;;;20.87;;
15104;SDS011;7653;48.994;9.212;2023-02-23T09:31:53;30.70;;;18.07;;
15104;SDS011;7653;48.994;9.212;2023-02-23T09:34:28;27.47;;;17.17;;
15104;SDS011;7653;48.994;9.212;2023-02-23T09:37:04;24.80;;;15.20;;
15104;SDS011;7653;48.994;9.212;2023-02-23T09:39:45;20.70;;;15.20;;
15104;SDS011;7653;48.994;9.212;2023-02-23T09:51:52;22.17;;;14.13;;
15104;SDS011;7653;48.994;9.212;2023-02-23T09:57:33;20.93;;;14.13;;
15104;SDS011;7653;48.994;9.212;2023-02-23T10:03:29;20.23;;;13.47;;
15104;SDS011;7653;48.994;9.212;2023-02-23T10:05:59;21.73;;;14.80;;
15104;SDS011;7653;48.994;9.212;2023-02-23T10:17:54;17.43;;;12.40;;
15104;SDS011;7653;48.994;9.212;2023-02-23T10:26:25;15.90;;;10.27;;
15104;SDS011;7653;48.994;9.212;2023-02-23T10:29:30;16.27;;;9.63;;
15104;SDS011;7653;48.994;9.212;2023-02-23T10:35:19;13.10;;;8.73;;
15104;SDS011;7653;48.994;9.212;2023-02-23T10:40:54;15.70;;;10.17;;
15104;SDS011;7653;48.994;9.212;2023-02-23T10:43:20;16.43;;;10.17;;
15104;SDS011;7653;48.994;9.212;2023-02-23T10:46:04;15.47;;;10.67;;
15104;SDS011;7653;48.994;9.212;2023-02-23T10:48:56;13.43;;;9.70;;
15104;SDS011;7653;48.994;9.212;2023-02-23T10:51:38;15.77;;;10.40;;
15104;SDS011;7653;48.994;9.212;2023-02-23T13:02:24;8.40;;;4.27;;
15104;SDS011;7653;48.994;9.212;2023-02-23T13:22:48;5.70;;;3.07;;
15104;SDS011;7653;48.994;9.212;2023-02-23T13:24:48;6.73;;;3.40;;
15104;SDS011;7653;48.994;9.212;2023-02-23T13:27:42;7.50;;;3.50;;
15104;SDS011;7653;48.994;9.212;2023-02-23T13:30:16;5.77;;;3.67;;
15104;SDS011;7653;48.994;9.212;2023-02-23T13:32:45;5.67;;;3.10;;
15104;SDS011;7653;48.994;9.212;2023-02-23T13:35:15;5.37;;;3.40;;
15104;SDS011;7653;48.994;9.212;2023-02-23T13:37:51;5.93;;;3.30;;
15104;SDS011;7653;48.994;9.212;2023-02-23T13:53:57;7.03;;;4.57;;
15104;SDS011;7653;48.994;9.212;2023-02-23T13:56:30;4.60;;;3.97;;
15104;SDS011;7653;48.994;9.212;2023-02-23T13:59:06;7.73;;;4.27;;
15104;SDS011;7653;48.994;9.212;2023-02-23T14:01:43;8.67;;;4.47;;
15104;SDS011;7653;48.994;9.212;2023-02-23T14:04:16;6.77;;;4.23;;
15104;SDS011;7653;48.994;9.212;2023-02-23T14:09:33;7.23;;;4.53;;
15104;SDS011;7653;48.994;9.212;2023-02-23T14:12:35;7.33;;;4.30;;
15104;SDS011;7653;48.994;9.212;2023-02-23T14:29:09;9.07;;;5.30;;
15104;SDS011;7653;48.994;9.212;2023-02-23T14:32:03;8.27;;;5.40;;
15104;SDS011;7653;48.994;9.212;2023-02-23T14:37:22;11.67;;;7.67;;
15104;SDS011;7653;48.994;9.212;2023-02-23T14:42:38;7.17;;;4.83;;
15104;SDS011;7653;48.994;9.212;2023-02-23T14:45:15;9.33;;;5.47;;
15104;SDS011;7653;48.994;9.212;2023-02-23T14:48:15;8.07;;;5.17;;
15104;SDS011;7653;48.994;9.212;2023-02-23T14:51:08;9.03;;;5.67;;
15104;SDS011;7653;48.994;9.212;2023-02-23T14:54:00;8.23;;;5.23;;
15104;SDS011;7653;48.994;9.212;2023-02-23T14:56:28;7.80;;;5.70;;
15104;SDS011;7653;48.994;9.212;2023-02-23T14:59:06;8.03;;;5.80;;
15104;SDS011;7653;48.994;9.212;2023-02-23T15:01:34;11.87;;;6.50;;
15104;SDS011;7653;48.994;9.212;2023-02-23T15:04:07;13.37;;;6.87;;
15104;SDS011;7653;48.994;9.212;2023-02-23T15:06:38;13.37;;;6.87;;
15104;SDS011;7653;48.994;9.212;2023-02-23T15:09:11;12.17;;;6.93;;
15104;SDS011;7653;48.994;9.212;2023-02-23T15:11:54;12.50;;;7.57;;
15104;SDS011;7653;48.994;9.212;2023-02-23T15:14:23;10.73;;;6.37;;
15104;SDS011;7653;48.994;9.212;2023-02-23T15:16:49;10.90;;;5.70;;
15104;SDS011;7653;48.994;9.212;2023-02-23T15:19:19;7.03;;;5.57;;
15104;SDS011;7653;48.994;9.212;2023-02-23T15:21:52;10.17;;;5.30;;
15104;SDS011;7653;48.994;9.212;2023-02-23T15:24:21;13.47;;;6.57;;
15104;SDS011;7653;48.994;9.212;2023-02-23T15:26:52;7.37;;;5.77;;
15104;SDS011;7653;48.994;9.212;2023-02-23T15:29:20;7.03;;;5.70;;
15104;SDS011;7653;48.994;9.212;2023-02-23T15:31:49;11.13;;;7.00;;
15104;SDS011;7653;48.994;9.212;2023-02-23T15:34:26;9.03;;;5.37;;
15104;SDS011;7653;48.994;9.212;2023-02-23T15:41:59;10.20;;;5.13;;
15104;SDS011;7653;48.994;9.212;2023-02-23T15:44:26;6.90;;;4.27;;
15104;SDS011;7653;48.994;9.212;2023-02-23T15:46:57;9.03;;;4.80;;
15104;SDS011;7653;48.994;9.212;2023-02-23T15:49:32;8.63;;;4.90;;
15104;SDS011;7653;48.994;9.212;2023-02-23T15:52:02;5.77;;;4.50;;
15104;SDS011;7653;48.994;9.212;2023-02-23T15:57:13;5.80;;;4.60;;
15104;SDS011;7653;48.994;9.212;2023-02-23T15:59:47;6.43;;;5.00;;
15104;SDS011;7653;48.994;9.212;2023-02-23T16:02:18;9.90;;;6.27;;
15104;SDS011;7653;48.994;9.212;2023-02-23T16:04:47;8.77;;;6.00;;
15104;SDS011;7653;48.994;9.212;2023-02-23T16:07:21;10.93;;;6.23;;
15104;SDS011;7653;48.994;9.212;2023-02-23T16:09:52;8.70;;;6.40;;
15104;SDS011;7653;48.994;9.212;2023-02-23T16:12:21;8.53;;;6.10;;
15104;SDS011;7653;48.994;9.212;2023-02-23T16:14:59;7.97;;;6.20;;
15104;SDS011;7653;48.994;9.212;2023-02-23T16:17:32;8.33;;;5.90;;
15104;SDS011;7653;48.994;9.212;2023-02-23T16:22:47;8.53;;;5.70;;
15104;SDS011;7653;48.994;9.212;2023-02-23T16:25:17;8.33;;;5.93;;
15104;SDS011;7653;48.994;9.212;2023-02-23T16:27:44;7.57;;;5.67;;
15104;SDS011;7653;48.994;9.212;2023-02-23T16:30:19;7.27;;;5.60;;
15104;SDS011;7653;48.994;9.212;2023-02-23T16:32:48;8.77;;;5.83;;
15104;SDS011;7653;48.994;9.212;2023-02-23T16:35:48;19.50;;;13.60;;
15104;SDS011;7653;48.994;9.212;2023-02-23T16:38:25;20.43;;;13.43;;
15104;SDS011;7653;48.994;9.212;2023-02-23T16:40:57;13.10;;;11.00;;
15104;SDS011;7653;48.994;9.212;2023-02-23T16:43:23;15.00;;;10.13;;
15104;SDS011;7653;48.994;9.212;2023-02-23T16:45:48;13.93;;;10.93;;
15104;SDS011;7653;48.994;9.212;2023-02-23T16:48:15;15.00;;;10.50;;
15104;SDS011;7653;48.994;9.212;2023-02-23T16:50:51;17.20;;;12.73;;
15104;SDS011;7653;48.994;9.212;2023-02-23T16:53:17;16.07;;;12.03;;
15104;SDS011;7653;48.994;9.212;2023-02-23T16:55:48;15.20;;;12.20;;
15104;SDS011;7653;48.994;9.212;2023-02-23T16:58:20;13.50;;;11.30;;
15104;SDS011;7653;48.994;9.212;2023-02-23T17:00:48;16.77;;;11.03;;
15104;SDS011;7653;48.994;9.212;2023-02-23T17:03:25;17.67;;;11.23;;
15104;SDS011;7653;48.994;9.212;2023-02-23T17:05:53;12.67;;;9.90;;
15104;SDS011;7653;48.994;9.212;2023-02-23T17:08:19;12.27;;;9.43;;
15104;SDS011;7653;48.994;9.212;2023-02-23T17:10:45;10.70;;;9.07;;
15104;SDS011;7653;48.994;9.212;2023-02-23T17:13:22;11.53;;;9.63;;
15104;SDS011;7653;48.994;9.212;2023-02-23T17:15:49;11.87;;;9.87;;
15104;SDS011;7653;48.994;9.212;2023-02-23T17:18:18;10.70;;;9.60;;
15104;SDS011;7653;48.994;9.212;2023-02-23T17:20:47;11.87;;;9.47;;
15104;SDS011;7653;48.994;9.212;2023-02-23T17:23:14;8.83;;;7.93;;
15104;SDS011;7653;48.994;9.212;2023-02-23T17:25:41;10.50;;;8.53;;
15104;SDS011;7653;48.994;9.212;2023-02-23T17:28:07;14.40;;;11.30;;
15104;SDS011;7653;48.994;9.212;2023-02-23T17:30:33;10.43;;;8.10;;
15104;SDS011;7653;48.994;9.212;2023-02-23T17:33:00;12.67;;;10.20;;
15104;SDS011;7653;48.994;9.212;2023-02-23T17:35:26;12.63;;;9.97;;
15104;SDS011;7653;48.994;9.212;2023-02-23T17:37:52;9.73;;;8.73;;
15104;SDS011;7653;48.994;9.212;2023-02-23T17:40:22;12.00;;;10.33;;
15104;SDS011;7653;48.994;9.212;2023-02-23T17:43:01;12.73;;;10.97;;
15104;SDS011;7653;48.994;9.212;2023-02-23T17:45:30;13.63;;;10.33;;
15104;SDS011;7653;48.994;9.212;2023-02-23T17:47:57;14.83;;;10.50;;
15104;SDS011;7653;48.994;9.212;2023-02-23T17:50:23;32.10;;;23.17;;
15104;SDS011;7653;48.994;9.212;2023-02-23T17:52:51;20.90;;;15.00;;
15104;SDS011;7653;48.994;9.212;2023-02-23T17:55:18;15.50;;;12.73;;
15104;SDS011;7653;48.994;9.212;2023-02-23T17:57:44;15.47;;;11.40;;
15104;SDS011;7653;48.994;9.212;2023-02-23T18:00:11;13.17;;;10.70;;
15104;SDS011;7653;48.994;9.212;2023-02-23T18:02:39;14.07;;;9.97;;
15104;SDS011;7653;48.994;9.212;2023-02-23T18:05:11;14.47;;;9.77;;
15104;SDS011;7653;48.994;9.212;2023-02-23T18:07:40;13.10;;;11.13;;
15104;SDS011;7653;48.994;9.212;2023-02-23T18:10:06;15.50;;;11.70;;
15104;SDS011;7653;48.994;9.212;2023-02-23T18:12:32;12.93;;;11.00;;
15104;SDS011;7653;48.994;9.212;2023-02-23T18:14:58;14.03;;;10.07;;
15104;SDS011;7653;48.994;9.212;2023-02-23T18:17:24;12.87;;;10.33;;
15104;SDS011;7653;48.994;9.212;2023-02-23T18:19:50;11.57;;;9.93;;
15104;SDS011;7653;48.994;9.212;2023-02-23T18:22:16;10.13;;;8.53;;
15104;SDS011;7653;48.994;9.212;2023-02-23T18:24:42;10.97;;;8.63;;
15104;SDS011;7653;48.994;9.212;2023-02-23T18:27:08;11.90;;;8.93;;
15104;SDS011;7653;48.994;9.212;2023-02-23T18:29:34;13.40;;;9.30;;
15104;SDS011;7653;48.994;9.212;2023-02-23T18:32:01;13.17;;;9.57;;
15104;SDS011;7653;48.994;9.212;2023-02-23T18:34:28;13.33;;;9.93;;
15104;SDS011;7653;48.994;9.212;2023-02-23T18:36:55;12.10;;;9.00;;
15104;SDS011;7653;48.994;9.212;2023-02-23T18:39:22;12.77;;;9.93;;
15104;SDS011;7653;48.994;9.212;2023-02-23T18:41:48;11.90;;;9.50;;
15104;SDS011;7653;48.994;9.212;2023-02-23T18:44:14;10.80;;;9.27;;
15104;SDS011;7653;48.994;9.212;2023-02-23T18:46:41;14.53;;;10.37;;
15104;SDS011;7653;48.994;9.212;2023-02-23T18:49:15;13.70;;;11.07;;
15104;SDS011;7653;48.994;9.212;2023-02-23T18:51:46;13.30;;;10.77;;
15104;SDS011;7653;48.994;9.212;2023-02-23T18:54:11;13.33;;;11.13;;
15104;SDS011;7653;48.994;9.212;2023-02-23T18:56:40;19.07;;;12.17;;
15104;SDS011;7653;48.994;9.212;2023-02-23T18:59:07;13.57;;;11.77;;
15104;SDS011;7653;48.994;9.212;2023-02-23T19:01:33;16.20;;;13.27;;
15104;SDS011;7653;48.994;9.212;2023-02-23T19:04:01;18.37;;;13.70;;
15104;SDS011;7653;48.994;9.212;2023-02-23T19:06:28;18.63;;;14.37;;
15104;SDS011;7653;48.994;9.212;2023-02-23T19:08:55;17.93;;;14.33;;
15104;SDS011;7653;48.994;9.212;2023-02-23T19:11:25;19.47;;;13.97;;
15104;SDS011;7653;48.994;9.212;2023-02-23T19:13:53;17.37;;;12.03;;
15104;SDS011;7653;48.994;9.212;2023-02-23T19:16:24;13.23;;;11.33;;
15104;SDS011;7653;48.994;9.212;2023-02-23T19:18:51;17.00;;;11.83;;
15104;SDS011;7653;48.994;9.212;2023-02-23T19:21:17;13.87;;;11.03;;
15104;SDS011;7653;48.994;9.212;2023-02-23T19:23:47;22.70;;;14.43;;
15104;SDS011;7653;48.994;9.212;2023-02-23T19:26:14;26.23;;;18.10;;
15104;SDS011;7653;48.994;9.212;2023-02-23T19:28:41;25.10;;;16.53;;
15104;SDS011;7653;48.994;9.212;2023-02-23T19:31:07;21.60;;;15.23;;
15104;SDS011;7653;48.994;9.212;2023-02-23T19:33:35;20.67;;;14.70;;
15104;SDS011;7653;48.994;9.212;2023-02-23T19:36:05;18.17;;;14.60;;
15104;SDS011;7653;48.994;9.212;2023-02-23T19:38:33;15.77;;;12.30;;
15104;SDS011;7653;48.994;9.212;2023-02-23T19:40:59;14.80;;;12.33;;
15104;SDS011;7653;48.994;9.212;2023-02-23T19:43:25;18.77;;;13.50;;
15104;SDS011;7653;48.994;9.212;2023-02-23T19:45:50;17.73;;;14.40;;
15104;SDS011;7653;48.994;9.212;2023-02-23T19:48:16;17.60;;;14.43;;
15104;SDS011;7653;48.994;9.212;2023-02-23T19:50:46;16.43;;;14.37;;
15104;SDS011;7653;48.994;9.212;2023-02-23T19:53:16;16.47;;;12.40;;
15104;SDS011;7653;48.994;9.212;2023-02-23T19:55:42;13.30;;;11.90;;
15104;SDS011;7653;48.994;9.212;2023-02-23T19:58:09;18.33;;;13.87;;
15104;SDS011;7653;48.994;9.212;2023-02-23T20:00:36;19.30;;;16.40;;
15104;SDS011;7653;48.994;9.212;2023-02-23T20:03:02;23.03;;;16.07;;
15104;SDS011;7653;48.994;9.212;2023-02-23T20:05:31;16.33;;;13.93;;
15104;SDS011;7653;48.994;9.212;2023-02-23T20:07:58;23.50;;;18.13;;
15104;SDS011;7653;48.994;9.212;2023-02-23T20:10:24;22.33;;;18.10;;
15104;SDS011;7653;48.994;9.212;2023-02-23T20:12:53;20.83;;;17.50;;
15104;SDS011;7653;48.994;9.212;2023-02-23T20:15:19;20.70;;;16.53;;
15104;SDS011;7653;48.994;9.212;2023-02-23T20:17:46;19.77;;;17.23;;
15104;SDS011;7653;48.994;9.212;2023-02-23T20:20:12;19.30;;;15.87;;
15104;SDS011;7653;48.994;9.212;2023-02-23T20:22:38;19.90;;;16.70;;
15104;SDS011;7653;48.994;9.212;2023-02-23T20:25:09;19.33;;;16.70;;
15104;SDS011;7653;48.994;9.212;2023-02-23T20:27:39;25.50;;;16.63;;
15104;SDS011;7653;48.994;9.212;2023-02-23T20:30:07;20.03;;;15.67;;
15104;SDS011;7653;48.994;9.212;2023-02-23T20:32:34;18.03;;;16.13;;
15104;SDS011;7653;48.994;9.212;2023-02-23T20:35:00;18.80;;;15.17;;
15104;SDS011;7653;48.994;9.212;2023-02-23T20:37:26;19.87;;;15.73;;
15104;SDS011;7653;48.994;9.212;2023-02-23T20:39:52;19.90;;;14.77;;
15104;SDS011;7653;48.994;9.212;2023-02-23T20:42:18;16.93;;;14.50;;
15104;SDS011;7653;48.994;9.212;2023-02-23T20:44:44;21.53;;;14.03;;
15104;SDS011;7653;48.994;9.212;2023-02-23T20:47:09;18.30;;;15.10;;
15104;SDS011;7653;48.994;9.212;2023-02-23T20:49:36;20.33;;;16.30;;
15104;SDS011;7653;48.994;9.212;2023-02-23T20:52:03;21.70;;;17.70;;
15104;SDS011;7653;48.994;9.212;2023-02-23T20:54:29;30.33;;;22.40;;
15104;SDS011;7653;48.994;9.212;2023-02-23T20:56:54;30.57;;;22.63;;
15104;SDS011;7653;48.994;9.212;2023-02-23T20:59:32;29.10;;;20.60;;
15104;SDS011;7653;48.994;9.212;2023-02-23T21:02:01;23.43;;;17.30;;
15104;SDS011;7653;48.994;9.212;2023-02-23T21:04:28;24.10;;;18.33;;
15104;SDS011;7653;48.994;9.212;2023-02-23T21:06:54;18.23;;;14.87;;
15104;SDS011;7653;48.994;9.212;2023-02-23T21:09:19;18.73;;;16.23;;